Sion Airport LSGS

Flugplatz Daten

Name: Sion Airport

Ident: LSGS

Lat: 46,21960068

Long: 7,326759815

Platzhöhe: 1585 ft

IataCode: SIR

City: Sion

Homepage: http://www.sionairport.ch

Metar

2021/08/02 08:20
LSGS 020820Z VRB04KT 9999 FEW025 SCT060 16/12 Q1017

Taf

Gewünschte Webcam nicht vorhanden? Dann fügen Sie eine hinzu. Sie wird dann so schnell wie möglich freigeschaltet
Url: Title: